ENXZ weather

Sleipner B Platform
Norway

Public forecast

Using degrees Celsius for public forecast. Weather courtesy of forecast.io.

METAR (pilot weather report)

Closest report is Sleipner A Platform, 6.7 nm (12.4 km) ESE. Retrieved 2019/05/21 10:20 UTC (12 minutes ago):

ENSL 211020Z 33026KT 9999 BKN008 11/08 Q1013 W08/S3

TAF (pilot weather forecast)

Closest forecast is Stavanger Airport Sola, 125.6 nm (232.5 km) ENE. Retrieved 2019/05/21 06:57 UTC (4 hours ago):

TAF ENZV 210500Z 2106/2206 VRB03KT CAVOK BECMG 2108/2110 34010KT TEMPO 2115/2118 SHRA FEW010 SCT020CB TEMPO 2120/2124 2000 BR BKN004 PROB40 TEMPO 2200/2206 2000 SHRA BKN006 FEW020CB